Kasota, Minnesota
Current Conditions -  °F | °C
As of 9:35 AM on Saturday 22 Nov 2014 (Local Time) from KMKT Reporting Station
Overcast Overcast  
Wind Chill: 28°   Ceiling: 300
Heat Index: 36°   Visibility: 1.5mi
Dew Point: 30°   Wind: 10mph
Humidity: 81%   Direction: 200°SSW
Pressure: 29.76"   Gusts: NA
Location:  44.29°N, 93.96°W
Report Text: KMKT 221535Z AUTO 20009KT 1 1/2SM OVC003 02/M01 A2976 RMK AO1
Loading
Personal Weather Stations






























Interactive Weather Map New forecast layout! Learn more

10-Day Weather Forecast

Advertisements
Track Severe Weather on mobile